createdAt,value
2023-02-24T00:02:05.886Z,12.04
2023-02-24T00:04:39.604Z,12.03
2023-02-24T00:07:08.731Z,12.04
2023-02-24T00:09:35.602Z,12.01
2023-02-24T00:12:10.823Z,11.99
2023-02-24T00:14:41.175Z,11.98
2023-02-24T00:17:09.087Z,11.94
2023-02-24T00:19:37.107Z,11.94
2023-02-24T00:22:07.011Z,11.92
2023-02-24T00:24:34.656Z,11.89
2023-02-24T00:27:07.618Z,11.85
2023-02-24T00:29:37.459Z,11.83
2023-02-24T00:32:07.148Z,11.80
2023-02-24T00:34:36.731Z,11.79
2023-02-24T00:37:06.961Z,11.77
2023-02-24T00:39:35.065Z,11.76
2023-02-24T00:42:05.659Z,11.74
2023-02-24T00:44:49.741Z,11.72
2023-02-24T00:47:17.596Z,11.68
2023-02-24T00:49:44.901Z,11.65
2023-02-24T00:52:20.534Z,11.65
2023-02-24T00:54:49.902Z,11.62
2023-02-24T00:57:18.567Z,11.63
2023-02-24T00:59:47.618Z,11.60
2023-02-24T01:02:15.820Z,11.59
2023-02-24T01:04:44.288Z,11.57
2023-02-24T01:07:12.949Z,11.56
2023-02-24T01:09:41.680Z,11.52
2023-02-24T01:12:22.246Z,11.51
2023-02-24T01:14:53.149Z,11.48
2023-02-24T01:17:21.693Z,11.45
2023-02-24T01:19:50.208Z,11.43
2023-02-24T01:22:20.287Z,11.37
2023-02-24T01:24:48.715Z,11.33
2023-02-24T01:27:20.774Z,11.30
2023-02-24T01:29:48.557Z,11.27
2023-02-24T01:32:20.849Z,11.23
2023-02-24T01:34:51.627Z,11.20
2023-02-24T01:37:19.417Z,11.15
2023-02-24T01:39:47.527Z,11.12
2023-02-24T01:42:19.619Z,11.09
2023-02-24T01:44:46.559Z,11.08
2023-02-24T01:47:16.076Z,11.07
2023-02-24T01:49:47.167Z,11.02
2023-02-24T01:52:30.581Z,10.99
2023-02-24T01:55:03.187Z,10.95
2023-02-24T01:57:35.861Z,10.91
2023-02-24T02:00:20.263Z,10.90
2023-02-24T02:02:52.474Z,10.85
2023-02-24T02:05:19.337Z,10.87
2023-02-24T02:07:46.471Z,10.86
2023-02-24T02:10:13.916Z,10.84
2023-02-24T02:12:44.839Z,10.84
2023-02-24T02:15:16.724Z,10.81
2023-02-24T02:18:20.808Z,10.80
2023-02-24T02:21:40.183Z,10.75
2023-02-24T02:24:33.618Z,10.70
2023-02-24T02:27:29.624Z,10.68
2023-02-24T02:30:19.509Z,10.64
2023-02-24T02:33:39.692Z,10.63
2023-02-24T02:36:39.461Z,10.59
2023-02-24T02:39:14.597Z,10.59
2023-02-24T02:42:26.568Z,10.60
2023-02-24T02:45:09.318Z,10.55
2023-02-24T02:48:00.801Z,10.55
2023-02-24T02:50:43.255Z,10.51
2023-02-24T02:53:26.566Z,10.49
2023-02-24T02:56:23.855Z,10.46
2023-02-24T02:58:55.116Z,10.42
2023-02-24T03:01:28.385Z,10.43
2023-02-24T03:04:04.508Z,10.45
2023-02-24T03:06:55.873Z,10.45
2023-02-24T03:09:36.008Z,10.45
2023-02-24T03:12:14.944Z,10.46
2023-02-24T03:14:52.559Z,10.43
2023-02-24T03:17:28.850Z,10.41
2023-02-24T03:20:14.845Z,10.40
2023-02-24T03:23:04.816Z,10.35
2023-02-24T03:25:46.747Z,10.31
2023-02-24T03:28:30.319Z,10.29
2023-02-24T03:31:07.404Z,10.29
2023-02-24T03:33:49.223Z,10.27
2023-02-24T03:36:15.976Z,10.28
2023-02-24T03:38:43.688Z,10.29
2023-02-24T03:41:11.295Z,10.31
2023-02-24T03:43:45.116Z,10.31
2023-02-24T03:46:13.939Z,10.30
2023-02-24T03:48:47.439Z,10.30
2023-02-24T03:51:23.207Z,10.29
2023-02-24T03:54:08.941Z,10.29
2023-02-24T03:56:49.649Z,10.25
2023-02-24T03:59:42.486Z,10.23
2023-02-24T04:02:20.160Z,10.20
2023-02-24T04:05:09.549Z,10.20
2023-02-24T04:08:05.444Z,10.18
2023-02-24T04:10:52.310Z,10.15
2023-02-24T04:13:37.213Z,10.14
2023-02-24T04:16:36.310Z,10.14
2023-02-24T04:19:14.024Z,10.14
2023-02-24T04:21:45.418Z,10.15
2023-02-24T04:24:16.180Z,10.14
2023-02-24T04:26:46.602Z,10.13
2023-02-24T04:29:29.187Z,10.13
2023-02-24T04:32:07.383Z,10.10
2023-02-24T04:34:35.041Z,10.09
2023-02-24T04:37:02.312Z,10.09
2023-02-24T04:39:31.042Z,10.08
2023-02-24T04:42:01.612Z,10.06
2023-02-24T04:44:29.089Z,10.05
2023-02-24T04:46:56.488Z,10.04
2023-02-24T04:49:23.518Z,10.05
2023-02-24T04:51:51.588Z,10.03
2023-02-24T04:54:20.819Z,10.03
2023-02-24T04:56:50.844Z,10.00
2023-02-24T04:59:20.203Z,10.01
2023-02-24T05:01:47.582Z,9.99
2023-02-24T05:04:14.929Z,9.98
2023-02-24T05:06:44.215Z,9.99
2023-02-24T05:09:14.364Z,10.00
2023-02-24T05:11:43.580Z,10.00
2023-02-24T05:14:16.237Z,10.00
2023-02-24T05:16:44.957Z,9.99
2023-02-24T05:19:34.294Z,10.00
2023-02-24T05:22:06.854Z,9.96
2023-02-24T05:24:34.763Z,9.96
2023-02-24T05:27:03.606Z,9.96
2023-02-24T05:29:35.241Z,10.20
2023-02-24T05:32:04.339Z,10.27
2023-02-24T05:34:33.529Z,10.20
2023-02-24T05:37:07.193Z,10.12
2023-02-24T05:39:35.053Z,10.08
2023-02-24T05:42:06.365Z,10.05
2023-02-24T05:44:35.457Z,10.02
2023-02-24T05:47:05.229Z,10.00
2023-02-24T05:49:35.143Z,9.98
2023-02-24T05:52:10.064Z,9.97
2023-02-24T05:54:41.855Z,9.93
2023-02-24T05:57:13.480Z,9.91
2023-02-24T05:59:42.066Z,9.89
2023-02-24T06:02:13.550Z,9.87
2023-02-24T06:04:51.573Z,9.85
2023-02-24T06:07:26.799Z,9.82
2023-02-24T06:09:58.531Z,9.82
2023-02-24T06:12:29.651Z,9.80
2023-02-24T06:15:00.415Z,9.75
2023-02-24T06:17:28.178Z,9.73
2023-02-24T06:19:55.184Z,9.69
2023-02-24T06:22:26.031Z,9.65
2023-02-24T06:24:55.122Z,9.61
2023-02-24T06:27:24.486Z,9.58
2023-02-24T06:29:54.367Z,9.52
2023-02-24T06:32:24.601Z,9.49
2023-02-24T06:34:52.054Z,9.46
2023-02-24T06:37:19.357Z,9.45
2023-02-24T06:39:46.449Z,9.43
2023-02-24T06:42:13.872Z,9.43
2023-02-24T06:44:41.381Z,9.40
2023-02-24T06:47:13.337Z,9.38
2023-02-24T06:49:42.631Z,9.36
2023-02-24T06:52:10.893Z,9.36
2023-02-24T06:54:37.633Z,9.35
2023-02-24T06:57:04.703Z,9.34
2023-02-24T06:59:32.088Z,9.37
2023-02-24T07:02:03.263Z,9.38
2023-02-24T07:04:30.149Z,9.40
2023-02-24T07:07:03.054Z,9.44
2023-02-24T07:09:31.355Z,9.48
2023-02-24T07:11:58.765Z,9.53
2023-02-24T07:14:30.878Z,9.58
2023-02-24T07:16:59.401Z,9.64
2023-02-24T07:19:30.062Z,9.66
2023-02-24T07:22:03.702Z,9.71
2023-02-24T07:24:37.087Z,9.73
2023-02-24T07:27:27.541Z,9.76
2023-02-24T07:29:54.304Z,9.77
2023-02-24T07:32:23.037Z,9.80
2023-02-24T07:34:49.960Z,9.84
2023-02-24T07:37:16.856Z,9.88
2023-02-24T07:39:43.940Z,9.89
2023-02-24T07:42:14.924Z,9.92
2023-02-24T07:44:44.380Z,9.95
2023-02-24T07:47:11.227Z,9.98
2023-02-24T07:49:40.725Z,10.02
2023-02-24T07:52:08.120Z,10.07
2023-02-24T07:54:35.520Z,10.07
2023-02-24T07:57:02.475Z,10.12
2023-02-24T07:59:33.142Z,10.16
2023-02-24T08:02:04.444Z,10.20
2023-02-24T08:04:32.871Z,10.23
2023-02-24T08:07:02.934Z,10.25
2023-02-24T08:09:47.154Z,10.32
2023-02-24T08:12:22.490Z,10.35
2023-02-24T08:14:53.038Z,10.41
2023-02-24T08:17:26.129Z,10.48
2023-02-24T08:20:15.632Z,10.56
2023-02-24T08:22:46.578Z,10.62
2023-02-24T08:25:18.989Z,10.69
2023-02-24T08:28:07.020Z,10.77
2023-02-24T08:30:38.882Z,10.83
2023-02-24T08:33:09.627Z,10.89
2023-02-24T08:35:44.282Z,10.98
2023-02-24T08:38:16.600Z,11.04
2023-02-24T08:40:52.258Z,11.10
2023-02-24T08:43:34.785Z,11.13
2023-02-24T08:46:13.576Z,11.16
2023-02-24T08:48:56.799Z,11.22
2023-02-24T08:51:34.928Z,11.25
2023-02-24T08:54:11.014Z,11.29
2023-02-24T08:56:43.334Z,11.36
2023-02-24T08:59:37.681Z,11.44
2023-02-24T09:02:18.762Z,11.52
2023-02-24T09:04:46.887Z,11.58
2023-02-24T09:07:35.325Z,11.65
2023-02-24T09:10:11.358Z,11.72
2023-02-24T09:12:41.233Z,11.76
2023-02-24T09:15:17.334Z,11.82
2023-02-24T09:17:45.393Z,11.89
2023-02-24T09:20:27.048Z,11.94
2023-02-24T09:22:59.591Z,11.97
2023-02-24T09:25:40.624Z,12.02
2023-02-24T09:28:27.373Z,12.09
2023-02-24T09:30:58.617Z,12.18
2023-02-24T09:33:41.654Z,12.32
2023-02-24T09:36:12.914Z,12.48
2023-02-24T09:39:00.741Z,12.63
2023-02-24T09:41:56.479Z,12.79
2023-02-24T09:44:39.783Z,12.93
2023-02-24T09:47:56.980Z,13.10
2023-02-24T09:51:02.571Z,13.27
2023-02-24T09:53:41.196Z,13.41
2023-02-24T09:56:22.734Z,13.53
2023-02-24T09:59:01.050Z,13.59
2023-02-24T10:02:18.074Z,13.66
2023-02-24T10:05:07.854Z,13.67
2023-02-24T10:07:43.881Z,13.69
2023-02-24T10:10:20.226Z,13.78
2023-02-24T10:12:54.614Z,13.88
2023-02-24T10:15:49.274Z,14.03
2023-02-24T10:19:14.924Z,14.19
2023-02-24T10:22:02.471Z,14.29
2023-02-24T10:24:38.431Z,14.38
2023-02-24T10:27:30.053Z,14.44
2023-02-24T10:30:10.770Z,14.45
2023-02-24T10:32:43.268Z,14.42
2023-02-24T10:35:17.782Z,14.42
2023-02-24T10:37:45.392Z,14.39
2023-02-24T10:40:24.715Z,14.36
2023-02-24T10:42:54.959Z,14.33
2023-02-24T10:45:34.685Z,14.30
2023-02-24T10:48:07.351Z,14.27
2023-02-24T10:50:55.431Z,14.23
2023-02-24T10:53:37.510Z,14.16
2023-02-24T10:56:26.921Z,14.08
2023-02-24T10:59:25.172Z,13.97
2023-02-24T11:01:59.765Z,13.86
2023-02-24T11:04:58.417Z,13.76
2023-02-24T11:07:33.454Z,13.65
2023-02-24T11:10:11.370Z,13.57
2023-02-24T11:13:10.274Z,13.52
2023-02-24T11:16:09.761Z,13.45
2023-02-24T11:18:39.146Z,13.37
2023-02-24T11:21:11.098Z,13.31
2023-02-24T11:23:45.978Z,13.24
2023-02-24T11:26:21.639Z,13.14
2023-02-24T11:29:50.029Z,13.06
2023-02-24T11:32:52.860Z,12.91
2023-02-24T11:35:40.700Z,12.86
2023-02-24T11:38:46.773Z,12.84
2023-02-24T11:41:27.119Z,12.76
2023-02-24T11:44:19.772Z,12.68
2023-02-24T11:46:54.534Z,12.61
2023-02-24T11:49:42.326Z,12.54
2023-02-24T11:52:40.842Z,12.45
2023-02-24T11:55:35.989Z,12.37
2023-02-24T11:58:39.518Z,12.31
2023-02-24T12:01:22.363Z,12.27
2023-02-24T12:04:19.014Z,12.21
2023-02-24T12:07:20.361Z,12.15
2023-02-24T12:10:15.513Z,12.08
2023-02-24T12:13:13.980Z,12.01
2023-02-24T12:16:08.268Z,11.96
2023-02-24T12:18:50.298Z,11.92
2023-02-24T12:21:30.551Z,11.88
2023-02-24T12:23:59.077Z,11.86
2023-02-24T12:26:47.792Z,11.84
2023-02-24T12:29:56.000Z,11.81
2023-02-24T12:33:03.101Z,11.78
2023-02-24T12:36:09.589Z,11.74
2023-02-24T12:39:00.817Z,11.73
2023-02-24T12:41:46.790Z,11.72
2023-02-24T12:44:45.103Z,11.73
2023-02-24T12:47:30.184Z,11.70
2023-02-24T12:50:14.499Z,11.69
2023-02-24T12:53:08.379Z,11.68
2023-02-24T12:56:11.684Z,11.66
2023-02-24T12:58:44.909Z,11.63
2023-02-24T13:01:55.909Z,11.63
2023-02-24T13:04:54.874Z,11.59
2023-02-24T13:07:42.771Z,11.57
2023-02-24T13:10:46.438Z,11.56
2023-02-24T13:13:31.423Z,11.53
2023-02-24T13:16:02.543Z,11.49
2023-02-24T13:18:39.399Z,11.46
2023-02-24T13:21:23.437Z,11.43
2023-02-24T13:24:03.408Z,11.38
2023-02-24T13:26:32.733Z,11.34
2023-02-24T13:29:11.768Z,11.33
2023-02-24T13:31:51.626Z,11.29
2023-02-24T13:34:44.615Z,11.24
2023-02-24T13:37:11.781Z,11.17
2023-02-24T13:39:41.494Z,11.14
2023-02-24T13:42:24.534Z,11.12
2023-02-24T13:45:02.022Z,11.11
2023-02-24T13:47:59.781Z,11.09
2023-02-24T13:51:03.655Z,11.06
2023-02-24T13:53:51.173Z,11.05
2023-02-24T13:56:39.417Z,11.04
2023-02-24T13:59:32.817Z,11.05
2023-02-24T14:02:15.619Z,11.02
2023-02-24T14:04:59.550Z,11.03
2023-02-24T14:07:33.738Z,11.04
2023-02-24T14:10:06.193Z,11.06
2023-02-24T14:12:36.177Z,11.11
2023-02-24T14:15:04.754Z,11.15
2023-02-24T14:17:37.159Z,11.21
2023-02-24T14:20:09.672Z,11.26
2023-02-24T14:22:44.932Z,11.29
2023-02-24T14:25:13.315Z,11.32
2023-02-24T14:27:42.502Z,11.33
2023-02-24T14:30:26.020Z,11.35
2023-02-24T14:32:53.406Z,11.36
2023-02-24T14:35:38.945Z,11.34
2023-02-24T14:38:06.077Z,11.30
2023-02-24T14:40:33.391Z,11.27
2023-02-24T14:43:00.291Z,11.26
2023-02-24T14:45:28.862Z,11.24
2023-02-24T14:47:56.762Z,11.21
2023-02-24T14:50:41.697Z,11.19
2023-02-24T14:53:17.723Z,11.17
2023-02-24T14:55:50.562Z,11.14
2023-02-24T14:58:31.485Z,11.10
2023-02-24T15:01:21.666Z,11.08
2023-02-24T15:04:12.017Z,11.05
2023-02-24T15:06:43.709Z,11.02
2023-02-24T15:09:24.257Z,11.04
2023-02-24T15:11:53.286Z,11.01
2023-02-24T15:14:26.517Z,11.04
2023-02-24T15:17:16.161Z,11.02
2023-02-24T15:19:46.383Z,10.98
2023-02-24T15:22:28.632Z,10.94
2023-02-24T15:25:15.660Z,10.90
2023-02-24T15:27:56.771Z,10.85
2023-02-24T15:30:29.289Z,10.82
2023-02-24T15:33:26.379Z,10.78
2023-02-24T15:35:59.357Z,10.72
2023-02-24T15:38:36.204Z,10.66
2023-02-24T15:41:06.062Z,10.62
2023-02-24T15:43:38.607Z,10.57
2023-02-24T15:46:31.016Z,10.51
2023-02-24T15:49:03.154Z,10.46
2023-02-24T15:51:39.816Z,10.42
2023-02-24T15:54:20.001Z,10.38
2023-02-24T15:56:48.824Z,10.34
2023-02-24T15:59:19.716Z,10.32
2023-02-24T16:01:46.688Z,10.31
2023-02-24T16:04:14.027Z,10.31
2023-02-24T16:06:54.472Z,10.28
2023-02-24T16:09:36.244Z,10.26
2023-02-24T16:12:13.291Z,10.22
2023-02-24T16:14:41.531Z,10.19
2023-02-24T16:17:39.078Z,10.21
2023-02-24T16:20:12.518Z,10.15
2023-02-24T16:22:39.302Z,10.13
2023-02-24T16:25:06.962Z,10.13
2023-02-24T16:27:34.327Z,10.14
2023-02-24T16:30:01.091Z,10.13
2023-02-24T16:32:28.105Z,10.13
2023-02-24T16:34:55.108Z,10.11
2023-02-24T16:37:29.770Z,10.08
2023-02-24T16:39:59.127Z,10.04
2023-02-24T16:42:25.896Z,10.01
2023-02-24T16:44:52.756Z,9.98
2023-02-24T16:47:25.256Z,9.98
2023-02-24T16:49:57.512Z,9.95
2023-02-24T16:52:24.883Z,9.92
2023-02-24T16:54:51.897Z,9.92
2023-02-24T16:57:18.620Z,9.92
2023-02-24T16:59:45.334Z,9.92
2023-02-24T17:02:23.882Z,9.88
2023-02-24T17:04:50.709Z,9.89
2023-02-24T17:07:20.244Z,9.86
2023-02-24T17:09:47.267Z,9.87
2023-02-24T17:12:17.047Z,9.87
2023-02-24T17:14:43.740Z,9.86
2023-02-24T17:17:11.675Z,9.85
2023-02-24T17:19:39.009Z,9.85
2023-02-24T17:22:05.988Z,9.86
2023-02-24T17:24:32.718Z,9.84
2023-02-24T17:27:00.457Z,9.82
2023-02-24T17:29:27.825Z,9.82
2023-02-24T17:31:54.705Z,9.79
2023-02-24T17:34:23.857Z,9.77
2023-02-24T17:36:50.668Z,9.77
2023-02-24T17:39:17.425Z,9.78
2023-02-24T17:41:44.348Z,9.77
2023-02-24T17:44:11.162Z,9.77
2023-02-24T17:46:38.007Z,9.78
2023-02-24T17:49:05.068Z,9.79
2023-02-24T17:51:32.366Z,9.81
2023-02-24T17:53:59.221Z,9.82
2023-02-24T17:56:26.098Z,9.82
2023-02-24T17:58:58.642Z,9.81
2023-02-24T18:01:27.049Z,9.79
2023-02-24T18:03:57.268Z,9.79
2023-02-24T18:06:25.212Z,9.80
2023-02-24T18:08:51.982Z,9.79
2023-02-24T18:11:19.852Z,9.82
2023-02-24T18:13:48.557Z,9.82
2023-02-24T18:16:16.292Z,9.81
2023-02-24T18:18:43.112Z,9.83
2023-02-24T18:21:09.796Z,9.85
2023-02-24T18:23:40.046Z,9.85
2023-02-24T18:26:09.852Z,10.08
2023-02-24T18:28:37.900Z,10.18
2023-02-24T18:31:33.118Z,10.05
2023-02-24T18:34:00.566Z,9.94
2023-02-24T18:36:28.066Z,9.90
2023-02-24T18:38:57.713Z,9.85
2023-02-24T18:41:24.859Z,9.85
2023-02-24T18:43:55.074Z,9.82
2023-02-24T18:46:24.547Z,9.79
2023-02-24T18:48:51.773Z,9.78
2023-02-24T18:51:22.654Z,9.76
2023-02-24T18:53:52.585Z,9.74
2023-02-24T18:56:23.927Z,9.74
2023-02-24T18:58:52.712Z,9.73
2023-02-24T19:01:24.849Z,9.74
2023-02-24T19:03:53.662Z,9.74
2023-02-24T19:06:21.491Z,9.75
2023-02-24T19:08:54.768Z,9.76
2023-02-24T19:11:21.762Z,9.75
2023-02-24T19:13:48.574Z,9.74
2023-02-24T19:16:17.256Z,9.73
2023-02-24T19:18:45.040Z,9.75
2023-02-24T19:21:12.057Z,9.72
2023-02-24T19:23:38.898Z,9.70
2023-02-24T19:26:07.801Z,9.71
2023-02-24T19:28:34.769Z,9.68
2023-02-24T19:31:01.565Z,9.68
2023-02-24T19:33:28.748Z,9.68
2023-02-24T19:36:03.489Z,9.63
2023-02-24T19:38:30.714Z,9.64
2023-02-24T19:41:01.274Z,9.62
2023-02-24T19:43:28.710Z,9.62
2023-02-24T19:45:55.892Z,9.60
2023-02-24T19:48:23.434Z,9.59
2023-02-24T19:50:50.476Z,9.59
2023-02-24T19:53:18.532Z,9.60
2023-02-24T19:55:49.758Z,9.59
2023-02-24T19:58:16.826Z,9.58
2023-02-24T20:00:43.815Z,9.59
2023-02-24T20:03:16.995Z,9.58
2023-02-24T20:05:44.032Z,9.59
2023-02-24T20:08:11.472Z,9.60
2023-02-24T20:10:38.790Z,9.61
2023-02-24T20:13:05.862Z,9.62
2023-02-24T20:15:33.606Z,9.63
2023-02-24T20:18:04.686Z,9.63
2023-02-24T20:20:32.051Z,9.61
2023-02-24T20:22:59.350Z,9.65
2023-02-24T20:25:26.441Z,9.63
2023-02-24T20:27:54.124Z,9.64
2023-02-24T20:30:21.412Z,9.64
2023-02-24T20:32:48.900Z,9.66
2023-02-24T20:35:18.791Z,9.66
2023-02-24T20:37:45.763Z,9.66
2023-02-24T20:40:13.145Z,9.67
2023-02-24T20:42:39.979Z,9.69
2023-02-24T20:45:08.011Z,9.69
2023-02-24T20:47:35.013Z,9.69
2023-02-24T20:50:03.127Z,9.66
2023-02-24T20:52:30.452Z,9.66
2023-02-24T20:54:57.172Z,9.66
2023-02-24T20:57:24.139Z,9.64
2023-02-24T21:00:02.847Z,9.60
2023-02-24T21:02:30.185Z,9.57
2023-02-24T21:04:57.005Z,9.55
2023-02-24T21:07:23.963Z,9.54
2023-02-24T21:09:52.066Z,9.52
2023-02-24T21:12:19.368Z,9.48
2023-02-24T21:14:46.192Z,9.46
2023-02-24T21:17:13.024Z,9.45
2023-02-24T21:19:39.875Z,9.46
2023-02-24T21:22:06.924Z,9.44
2023-02-24T21:24:33.619Z,9.43
2023-02-24T21:27:00.409Z,9.41
2023-02-24T21:29:27.517Z,9.40
2023-02-24T21:31:55.964Z,9.39
2023-02-24T21:34:22.833Z,9.37
2023-02-24T21:36:49.633Z,9.32
2023-02-24T21:39:17.653Z,9.27
2023-02-24T21:41:44.893Z,9.22
2023-02-24T21:44:14.693Z,9.19
2023-02-24T21:46:42.497Z,9.11
2023-02-24T21:49:14.294Z,9.07
2023-02-24T21:51:42.129Z,8.99
2023-02-24T21:54:08.908Z,8.94
2023-02-24T21:56:35.760Z,8.90
2023-02-24T21:59:06.230Z,8.84
2023-02-24T22:01:37.100Z,8.77
2023-02-24T22:04:08.301Z,8.71
2023-02-24T22:06:38.206Z,8.67
2023-02-24T22:09:08.388Z,8.64
2023-02-24T22:11:39.359Z,8.59
2023-02-24T22:14:14.703Z,8.54
2023-02-24T22:16:42.482Z,8.48
2023-02-24T22:19:10.193Z,8.44
2023-02-24T22:21:39.575Z,8.41
2023-02-24T22:24:06.867Z,8.36
2023-02-24T22:26:33.927Z,8.32
2023-02-24T22:29:08.377Z,8.31
2023-02-24T22:31:38.157Z,8.29
2023-02-24T22:34:06.222Z,8.28
2023-02-24T22:36:36.826Z,8.23
2023-02-24T22:39:06.305Z,8.23
2023-02-24T22:41:35.560Z,8.21
2023-02-24T22:44:05.253Z,8.17
2023-02-24T22:46:38.300Z,8.14
2023-02-24T22:49:06.495Z,8.10
2023-02-24T22:51:35.058Z,8.07
2023-02-24T22:54:02.973Z,8.06
2023-02-24T22:56:30.832Z,8.03
2023-02-24T22:58:58.923Z,8.03
2023-02-24T23:01:29.909Z,8.02
2023-02-24T23:04:01.238Z,8.04
2023-02-24T23:06:29.436Z,8.02
2023-02-24T23:08:59.621Z,8.07
2023-02-24T23:11:33.616Z,8.07
2023-02-24T23:14:05.870Z,8.10
2023-02-24T23:16:35.235Z,8.12
2023-02-24T23:19:12.060Z,8.16
2023-02-24T23:21:43.466Z,8.19
2023-02-24T23:24:12.558Z,8.19
2023-02-24T23:27:00.498Z,8.22
2023-02-24T23:29:27.527Z,8.23
2023-02-24T23:31:54.458Z,8.29
2023-02-24T23:34:25.008Z,8.31
2023-02-24T23:36:52.178Z,8.31
2023-02-24T23:39:23.529Z,8.34
2023-02-24T23:41:57.532Z,8.34
2023-02-24T23:44:25.128Z,8.33
2023-02-24T23:46:52.184Z,8.31
2023-02-24T23:49:19.133Z,8.32
2023-02-24T23:51:48.719Z,8.32
2023-02-24T23:54:18.132Z,8.29
2023-02-24T23:56:45.438Z,8.28
2023-02-24T23:59:12.494Z,8.26
